sensor_id;sensor_type;location;lat;lon;timestamp;pressure;altitude;pressure_sealevel;temperature;humidity
12486;BME280;6307;46.804;11.580;2022-08-24T00:01:19;-21392.38;;;18.01;77.61
12486;BME280;6307;46.804;11.580;2022-08-24T00:03:45;-21391.03;;;17.96;75.92
12486;BME280;6307;46.804;11.580;2022-08-24T00:06:19;-21389.09;;;17.90;77.37
12486;BME280;6307;46.804;11.580;2022-08-24T00:08:48;-21385.81;;;17.79;79.30
12486;BME280;6307;46.804;11.580;2022-08-24T00:11:16;-21385.22;;;17.77;79.83
12486;BME280;6307;46.804;11.580;2022-08-24T00:13:43;-21381.63;;;17.65;81.14
12486;BME280;6307;46.804;11.580;2022-08-24T00:16:11;-21380.59;;;17.61;82.37
12486;BME280;6307;46.804;11.580;2022-08-24T00:18:39;-21380.00;;;17.59;81.48
12486;BME280;6307;46.804;11.580;2022-08-24T00:21:06;-21378.34;;;17.54;82.66
12486;BME280;6307;46.804;11.580;2022-08-24T00:23:34;-21377.91;;;17.52;83.29
12486;BME280;6307;46.804;11.580;2022-08-24T00:26:00;-21383.72;;;17.72;79.69
12486;BME280;6307;46.804;11.580;2022-08-24T00:28:27;-21379.69;;;17.58;81.61
12486;BME280;6307;46.804;11.580;2022-08-24T00:30:54;-21377.00;;;17.49;81.56
12486;BME280;6307;46.804;11.580;2022-08-24T00:33:21;-21375.06;;;17.43;80.57
12486;BME280;6307;46.804;11.580;2022-08-24T00:35:47;-21372.69;;;17.35;84.06
12486;BME280;6307;46.804;11.580;2022-08-24T00:38:13;-21371.34;;;17.30;84.03
12486;BME280;6307;46.804;11.580;2022-08-24T00:40:44;-21373.88;;;17.39;83.31
12486;BME280;6307;46.804;11.580;2022-08-24T00:43:12;-21376.41;;;17.47;82.53
12486;BME280;6307;46.804;11.580;2022-08-24T00:45:47;-21378.34;;;17.54;82.46
12486;BME280;6307;46.804;11.580;2022-08-24T00:49:00;-21378.50;;;17.54;81.66
12486;BME280;6307;46.804;11.580;2022-08-24T00:51:36;-21377.75;;;17.52;81.97
12486;BME280;6307;46.804;11.580;2022-08-24T00:54:11;-21373.28;;;17.37;83.61
12486;BME280;6307;46.804;11.580;2022-08-24T00:56:45;-21374.47;;;17.41;81.62
12486;BME280;6307;46.804;11.580;2022-08-24T00:59:20;-21367.63;;;17.18;83.41
12486;BME280;6307;46.804;11.580;2022-08-24T01:02:20;-21367.47;;;17.17;84.79
12486;BME280;6307;46.804;11.580;2022-08-24T01:04:54;-21364.78;;;17.08;84.47
12486;BME280;6307;46.804;11.580;2022-08-24T01:07:24;-21368.06;;;17.19;82.56
12486;BME280;6307;46.804;11.580;2022-08-24T01:09:55;-21368.81;;;17.22;84.17
12486;BME280;6307;46.804;11.580;2022-08-24T01:12:29;-21367.31;;;17.17;84.40
12486;BME280;6307;46.804;11.580;2022-08-24T01:14:59;-21364.63;;;17.08;85.15
12486;BME280;6307;46.804;11.580;2022-08-24T01:17:29;-21365.22;;;17.10;85.49
12486;BME280;6307;46.804;11.580;2022-08-24T01:20:14;-21363.44;;;17.04;85.63
12486;BME280;6307;46.804;11.580;2022-08-24T01:25:32;-21358.66;;;16.88;87.51
12486;BME280;6307;46.804;11.580;2022-08-24T01:28:05;-21355.97;;;16.79;88.49
12486;BME280;6307;46.804;11.580;2022-08-24T01:30:37;-21353.59;;;16.71;89.12
12486;BME280;6307;46.804;11.580;2022-08-24T01:33:06;-21356.28;;;16.80;86.98
12486;BME280;6307;46.804;11.580;2022-08-24T01:35:36;-21354.34;;;16.73;87.99
12486;BME280;6307;46.804;11.580;2022-08-24T01:38:07;-21352.56;;;16.67;89.38
12486;BME280;6307;46.804;11.580;2022-08-24T01:40:37;-21347.47;;;16.50;90.32
12486;BME280;6307;46.804;11.580;2022-08-24T01:43:11;-21348.81;;;16.55;90.81
12486;BME280;6307;46.804;11.580;2022-08-24T01:45:39;-21354.03;;;16.72;88.75
12486;BME280;6307;46.804;11.580;2022-08-24T01:48:06;-21347.03;;;16.49;90.52
12486;BME280;6307;46.804;11.580;2022-08-24T01:50:32;-21345.53;;;16.44;91.43
12486;BME280;6307;46.804;11.580;2022-08-24T01:53:01;-21344.66;;;16.41;91.18
12486;BME280;6307;46.804;11.580;2022-08-24T01:55:29;-21345.84;;;16.45;90.81
12486;BME280;6307;46.804;11.580;2022-08-24T01:57:56;-21343.91;;;16.38;91.49
12486;BME280;6307;46.804;11.580;2022-08-24T02:00:22;-21349.72;;;16.58;88.57
12486;BME280;6307;46.804;11.580;2022-08-24T02:02:49;-21346.88;;;16.48;90.11
12486;BME280;6307;46.804;11.580;2022-08-24T02:05:15;-21344.34;;;16.40;90.88
12486;BME280;6307;46.804;11.580;2022-08-24T02:07:42;-21350.47;;;16.60;88.83
12486;BME280;6307;46.804;11.580;2022-08-24T02:10:13;-21346.72;;;16.48;90.55
12486;BME280;6307;46.804;11.580;2022-08-24T02:12:41;-21348.06;;;16.52;89.04
12486;BME280;6307;46.804;11.580;2022-08-24T02:15:10;-21348.06;;;16.52;90.20
12486;BME280;6307;46.804;11.580;2022-08-24T02:17:37;-21347.47;;;16.50;89.61
12486;BME280;6307;46.804;11.580;2022-08-24T02:20:05;-21348.06;;;16.52;89.58
12486;BME280;6307;46.804;11.580;2022-08-24T02:22:32;-21346.44;;;16.47;89.96
12486;BME280;6307;46.804;11.580;2022-08-24T02:24:59;-21340.31;;;16.26;91.03
12486;BME280;6307;46.804;11.580;2022-08-24T02:27:25;-21342.09;;;16.32;90.33
12486;BME280;6307;46.804;11.580;2022-08-24T02:29:51;-21341.94;;;16.32;89.78
12486;BME280;6307;46.804;11.580;2022-08-24T02:32:18;-21341.22;;;16.29;90.25
12486;BME280;6307;46.804;11.580;2022-08-24T02:34:44;-21339.25;;;16.23;90.54
12486;BME280;6307;46.804;11.580;2022-08-24T02:37:10;-21340.00;;;16.25;90.18
12486;BME280;6307;46.804;11.580;2022-08-24T02:39:36;-21340.59;;;16.27;90.58
12486;BME280;6307;46.804;11.580;2022-08-24T02:42:03;-21340.47;;;16.27;90.14
12486;BME280;6307;46.804;11.580;2022-08-24T02:44:29;-21342.69;;;16.34;89.43
12486;BME280;6307;46.804;11.580;2022-08-24T02:46:55;-21340.75;;;16.28;90.19
12486;BME280;6307;46.804;11.580;2022-08-24T02:49:22;-21339.25;;;16.23;90.41
12486;BME280;6307;46.804;11.580;2022-08-24T02:51:48;-21337.19;;;16.16;90.73
12486;BME280;6307;46.804;11.580;2022-08-24T02:54:15;-21337.47;;;16.17;90.62
12486;BME280;6307;46.804;11.580;2022-08-24T02:56:43;-21333.75;;;16.04;92.11
12486;BME280;6307;46.804;11.580;2022-08-24T02:59:09;-21337.03;;;16.15;91.12
12486;BME280;6307;46.804;11.580;2022-08-24T03:01:36;-21338.97;;;16.22;89.81
12486;BME280;6307;46.804;11.580;2022-08-24T03:04:03;-21329.41;;;15.90;93.55
12486;BME280;6307;46.804;11.580;2022-08-24T03:06:29;-21333.00;;;16.02;91.37
12486;BME280;6307;46.804;11.580;2022-08-24T03:08:56;-21331.22;;;15.96;91.84
12486;BME280;6307;46.804;11.580;2022-08-24T03:11:23;-21330.59;;;15.94;92.33
12486;BME280;6307;46.804;11.580;2022-08-24T03:13:50;-21330.91;;;15.95;92.88
12486;BME280;6307;46.804;11.580;2022-08-24T03:16:16;-21330.59;;;15.94;92.53
12486;BME280;6307;46.804;11.580;2022-08-24T03:18:42;-21330.91;;;15.95;92.87
12486;BME280;6307;46.804;11.580;2022-08-24T03:21:09;-21333.28;;;16.03;91.82
12486;BME280;6307;46.804;11.580;2022-08-24T03:23:35;-21329.72;;;15.91;92.77
12486;BME280;6307;46.804;11.580;2022-08-24T03:26:02;-21325.69;;;15.78;94.75
12486;BME280;6307;46.804;11.580;2022-08-24T03:28:30;-21327.31;;;15.83;93.83
12486;BME280;6307;46.804;11.580;2022-08-24T03:30:56;-21327.19;;;15.83;93.83
12486;BME280;6307;46.804;11.580;2022-08-24T03:33:23;-21327.78;;;15.85;93.35
12486;BME280;6307;46.804;11.580;2022-08-24T03:35:49;-21334.19;;;16.06;91.33
12486;BME280;6307;46.804;11.580;2022-08-24T03:38:16;-21333.00;;;16.02;91.71
12486;BME280;6307;46.804;11.580;2022-08-24T03:40:43;-21334.03;;;16.06;90.93
12486;BME280;6307;46.804;11.580;2022-08-24T03:43:10;-21333.59;;;16.04;91.92
12486;BME280;6307;46.804;11.580;2022-08-24T03:45:57;-21334.34;;;16.07;91.17
12486;BME280;6307;46.804;11.580;2022-08-24T03:48:24;-21333.75;;;16.04;91.33
12486;BME280;6307;46.804;11.580;2022-08-24T03:50:50;-21332.56;;;16.01;92.34
12486;BME280;6307;46.804;11.580;2022-08-24T03:53:17;-21332.09;;;15.99;90.87
12486;BME280;6307;46.804;11.580;2022-08-24T03:55:43;-21335.09;;;16.09;90.36
12486;BME280;6307;46.804;11.580;2022-08-24T03:58:09;-21336.28;;;16.13;89.71
12486;BME280;6307;46.804;11.580;2022-08-24T04:00:35;-21334.63;;;16.08;91.02
12486;BME280;6307;46.804;11.580;2022-08-24T04:03:07;-21333.91;;;16.05;91.22
12486;BME280;6307;46.804;11.580;2022-08-24T04:05:35;-21327.63;;;15.84;92.16
12486;BME280;6307;46.804;11.580;2022-08-24T04:08:03;-21331.50;;;15.97;91.18
12486;BME280;6307;46.804;11.580;2022-08-24T04:10:31;-21327.94;;;15.85;92.74
12486;BME280;6307;46.804;11.580;2022-08-24T04:12:58;-21325.97;;;15.79;92.47
12486;BME280;6307;46.804;11.580;2022-08-24T04:15:26;-21322.41;;;15.67;93.76
12486;BME280;6307;46.804;11.580;2022-08-24T04:17:52;-21324.94;;;15.75;94.17
12486;BME280;6307;46.804;11.580;2022-08-24T04:20:19;-21321.81;;;15.65;93.78
12486;BME280;6307;46.804;11.580;2022-08-24T04:22:45;-21320.47;;;15.60;94.13
12486;BME280;6307;46.804;11.580;2022-08-24T04:25:11;-21320.75;;;15.61;93.81
12486;BME280;6307;46.804;11.580;2022-08-24T04:27:39;-21318.81;;;15.55;94.54
12486;BME280;6307;46.804;11.580;2022-08-24T04:30:06;-21316.56;;;15.47;94.71
12486;BME280;6307;46.804;11.580;2022-08-24T04:32:33;-21321.06;;;15.62;93.69
12486;BME280;6307;46.804;11.580;2022-08-24T04:34:59;-21318.66;;;15.54;94.38
12486;BME280;6307;46.804;11.580;2022-08-24T04:37:26;-21319.84;;;15.58;93.35
12486;BME280;6307;46.804;11.580;2022-08-24T04:39:52;-21312.69;;;15.34;95.71
12486;BME280;6307;46.804;11.580;2022-08-24T04:42:18;-21314.19;;;15.39;96.16
12486;BME280;6307;46.804;11.580;2022-08-24T04:44:45;-21312.25;;;15.33;96.47
12486;BME280;6307;46.804;11.580;2022-08-24T04:47:11;-21314.47;;;15.40;95.53
12486;BME280;6307;46.804;11.580;2022-08-24T04:49:37;-21313.59;;;15.37;95.35
12486;BME280;6307;46.804;11.580;2022-08-24T04:52:04;-21316.28;;;15.46;96.04
12486;BME280;6307;46.804;11.580;2022-08-24T04:54:32;-21317.03;;;15.49;93.27
12486;BME280;6307;46.804;11.580;2022-08-24T04:56:59;-21311.34;;;15.30;96.68
12486;BME280;6307;46.804;11.580;2022-08-24T04:59:25;-21313.72;;;15.38;95.61
12486;BME280;6307;46.804;11.580;2022-08-24T05:01:51;-21313.13;;;15.36;96.19
12486;BME280;6307;46.804;11.580;2022-08-24T05:04:18;-21313.00;;;15.35;96.02
12486;BME280;6307;46.804;11.580;2022-08-24T05:06:44;-21311.63;;;15.31;95.67
12486;BME280;6307;46.804;11.580;2022-08-24T05:09:10;-21314.34;;;15.40;94.79
12486;BME280;6307;46.804;11.580;2022-08-24T05:11:38;-21314.47;;;15.40;95.22
12486;BME280;6307;46.804;11.580;2022-08-24T05:14:07;-21309.09;;;15.22;96.63
12486;BME280;6307;46.804;11.580;2022-08-24T05:16:35;-21312.69;;;15.34;95.84
12486;BME280;6307;46.804;11.580;2022-08-24T05:19:03;-21315.84;;;15.45;95.48
12486;BME280;6307;46.804;11.580;2022-08-24T05:21:31;-21316.13;;;15.46;94.37
12486;BME280;6307;46.804;11.580;2022-08-24T05:23:58;-21310.59;;;15.27;95.07
12486;BME280;6307;46.804;11.580;2022-08-24T05:26:26;-21312.09;;;15.32;94.47
12486;BME280;6307;46.804;11.580;2022-08-24T05:28:54;-21316.44;;;15.47;94.55
12486;BME280;6307;46.804;11.580;2022-08-24T05:31:24;-21309.69;;;15.24;98.08
12486;BME280;6307;46.804;11.580;2022-08-24T05:33:53;-21316.28;;;15.46;94.51
12486;BME280;6307;46.804;11.580;2022-08-24T05:38:54;-21316.13;;;15.46;93.22
12486;BME280;6307;46.804;11.580;2022-08-24T05:41:22;-21311.19;;;15.29;95.43
12486;BME280;6307;46.804;11.580;2022-08-24T05:43:50;-21314.63;;;15.41;94.87
12486;BME280;6307;46.804;11.580;2022-08-24T05:46:16;-21315.09;;;15.42;94.46
12486;BME280;6307;46.804;11.580;2022-08-24T05:48:43;-21315.84;;;15.45;93.70
12486;BME280;6307;46.804;11.580;2022-08-24T05:51:10;-21315.09;;;15.42;92.90
12486;BME280;6307;46.804;11.580;2022-08-24T05:53:38;-21311.78;;;15.31;96.30
12486;BME280;6307;46.804;11.580;2022-08-24T05:56:07;-21312.69;;;15.34;95.38
12486;BME280;6307;46.804;11.580;2022-08-24T05:58:35;-21311.78;;;15.31;96.17
12486;BME280;6307;46.804;11.580;2022-08-24T06:01:23;-21307.00;;;15.15;99.07
12486;BME280;6307;46.804;11.580;2022-08-24T06:03:52;-21327.31;;;15.83;95.12
12486;BME280;6307;46.804;11.580;2022-08-24T06:06:21;-21374.94;;;17.42;85.18
12486;BME280;6307;46.804;11.580;2022-08-24T06:08:50;-21414.88;;;18.76;78.29
12486;BME280;6307;46.804;11.580;2022-08-24T06:14:00;-21443.00;;;19.71;69.75
12486;BME280;6307;46.804;11.580;2022-08-24T06:16:29;-21432.88;;;19.37;70.40
12486;BME280;6307;46.804;11.580;2022-08-24T06:18:58;-21454.16;;;20.08;67.16
12486;BME280;6307;46.804;11.580;2022-08-24T06:21:26;-21474.53;;;20.77;64.89
12486;BME280;6307;46.804;11.580;2022-08-24T06:23:53;-21467.69;;;20.54;62.06
12486;BME280;6307;46.804;11.580;2022-08-24T06:26:20;-21473.47;;;20.73;61.37
12486;BME280;6307;46.804;11.580;2022-08-24T06:29:06;-21474.22;;;20.76;60.71
12486;BME280;6307;46.804;11.580;2022-08-24T06:31:42;-21479.28;;;20.93;60.30
12486;BME280;6307;46.804;11.580;2022-08-24T06:34:12;-21494.75;;;21.45;59.40
12486;BME280;6307;46.804;11.580;2022-08-24T06:36:40;-21502.03;;;21.69;55.48
12486;BME280;6307;46.804;11.580;2022-08-24T06:39:07;-21525.19;;;22.47;55.94
12486;BME280;6307;46.804;11.580;2022-08-24T06:41:35;-21516.72;;;22.19;53.06
12486;BME280;6307;46.804;11.580;2022-08-24T06:44:02;-21514.03;;;22.10;53.85
12486;BME280;6307;46.804;11.580;2022-08-24T06:46:29;-21525.03;;;22.47;51.19
12486;BME280;6307;46.804;11.580;2022-08-24T06:48:55;-21537.78;;;22.90;50.54
12486;BME280;6307;46.804;11.580;2022-08-24T06:51:22;-21536.59;;;22.86;49.98
12486;BME280;6307;46.804;11.580;2022-08-24T06:53:50;-21541.78;;;23.03;48.62
12486;BME280;6307;46.804;11.580;2022-08-24T06:56:19;-21542.25;;;23.05;47.06
12486;BME280;6307;46.804;11.580;2022-08-24T06:58:45;-21545.06;;;23.14;47.63
12486;BME280;6307;46.804;11.580;2022-08-24T07:01:22;-21556.63;;;23.53;45.79
12486;BME280;6307;46.804;11.580;2022-08-24T07:03:49;-21569.97;;;23.98;45.39
12486;BME280;6307;46.804;11.580;2022-08-24T07:06:16;-21572.34;;;24.06;44.00
12486;BME280;6307;46.804;11.580;2022-08-24T07:08:43;-21581.81;;;24.38;43.79
12486;BME280;6307;46.804;11.580;2022-08-24T07:11:11;-21594.13;;;24.80;42.34
12486;BME280;6307;46.804;11.580;2022-08-24T07:13:42;-21591.44;;;24.71;41.45
12486;BME280;6307;46.804;11.580;2022-08-24T07:16:09;-21616.00;;;25.54;40.71
12486;BME280;6307;46.804;11.580;2022-08-24T07:18:36;-21614.25;;;25.48;39.02
12486;BME280;6307;46.804;11.580;2022-08-24T07:21:03;-21624.16;;;25.81;38.88
12486;BME280;6307;46.804;11.580;2022-08-24T07:23:30;-21632.72;;;26.10;37.81
12486;BME280;6307;46.804;11.580;2022-08-24T07:26:04;-21627.84;;;25.94;37.75
12486;BME280;6307;46.804;11.580;2022-08-24T07:28:36;-21621.78;;;25.73;38.28
12486;BME280;6307;46.804;11.580;2022-08-24T07:31:04;-21629.03;;;25.98;37.01
12486;BME280;6307;46.804;11.580;2022-08-24T07:33:34;-21630.81;;;26.04;36.05
12486;BME280;6307;46.804;11.580;2022-08-24T07:36:01;-21639.22;;;26.32;36.98
12486;BME280;6307;46.804;11.580;2022-08-24T07:38:27;-21653.88;;;26.82;35.78
12486;BME280;6307;46.804;11.580;2022-08-24T07:40:53;-21658.16;;;26.96;35.54
12486;BME280;6307;46.804;11.580;2022-08-24T07:43:19;-21669.22;;;27.33;35.44
12486;BME280;6307;46.804;11.580;2022-08-24T07:45:47;-21662.44;;;27.10;34.31
12486;BME280;6307;46.804;11.580;2022-08-24T07:48:15;-21654.91;;;26.85;35.00
12486;BME280;6307;46.804;11.580;2022-08-24T07:50:42;-21668.03;;;27.30;34.53
12486;BME280;6307;46.804;11.580;2022-08-24T07:53:08;-21668.03;;;27.30;33.90
12486;BME280;6307;46.804;11.580;2022-08-24T07:55:35;-21652.09;;;26.76;35.78
12486;BME280;6307;46.804;11.580;2022-08-24T07:58:01;-21651.06;;;26.72;36.07
12486;BME280;6307;46.804;11.580;2022-08-24T08:00:27;-21651.66;;;26.74;35.25
12486;BME280;6307;46.804;11.580;2022-08-24T08:02:54;-21664.94;;;27.19;35.23
12486;BME280;6307;46.804;11.580;2022-08-24T08:05:22;-21662.28;;;27.10;34.84
12486;BME280;6307;46.804;11.580;2022-08-24T08:07:49;-21666.56;;;27.25;34.12
12486;BME280;6307;46.804;11.580;2022-08-24T08:10:16;-21651.94;;;26.75;34.77
12486;BME280;6307;46.804;11.580;2022-08-24T08:12:43;-21660.06;;;27.02;35.20
12486;BME280;6307;46.804;11.580;2022-08-24T08:15:10;-21676.00;;;27.56;33.55
12486;BME280;6307;46.804;11.580;2022-08-24T08:17:37;-21662.56;;;27.11;34.69
12486;BME280;6307;46.804;11.580;2022-08-24T08:20:06;-21680.59;;;27.72;33.22
12486;BME280;6307;46.804;11.580;2022-08-24T08:22:33;-21699.91;;;28.37;32.61
12486;BME280;6307;46.804;11.580;2022-08-24T08:25:18;-21711.28;;;28.76;32.40
12486;BME280;6307;46.804;11.580;2022-08-24T08:27:44;-21738.38;;;29.68;31.24
12486;BME280;6307;46.804;11.580;2022-08-24T08:30:12;-21740.00;;;29.73;28.97
12486;BME280;6307;46.804;11.580;2022-08-24T08:32:38;-21758.13;;;30.35;28.95
12486;BME280;6307;46.804;11.580;2022-08-24T08:35:05;-21752.38;;;30.15;28.48
12486;BME280;6307;46.804;11.580;2022-08-24T08:37:31;-21780.91;;;31.12;27.88
12486;BME280;6307;46.804;11.580;2022-08-24T08:39:58;-21782.97;;;31.19;25.37
12486;BME280;6307;46.804;11.580;2022-08-24T08:57:48;-21749.13;;;30.04;30.16
12486;BME280;6307;46.804;11.580;2022-08-24T09:01:02;-21760.31;;;30.42;28.83
12486;BME280;6307;46.804;11.580;2022-08-24T09:21:37;-21745.00;;;29.90;28.69
12486;BME280;6307;46.804;11.580;2022-08-24T09:30:17;-21779.44;;;31.07;28.32
12486;BME280;6307;46.804;11.580;2022-08-24T09:50:12;-21790.75;;;31.46;26.24
12486;BME280;6307;46.804;11.580;2022-08-24T09:55:37;-21834.53;;;32.95;25.58
12486;BME280;6307;46.804;11.580;2022-08-24T10:13:38;-21957.59;;;37.15;20.50
12486;BME280;6307;46.804;11.580;2022-08-24T10:19:06;-21924.75;;;36.03;20.26
12486;BME280;6307;46.804;11.580;2022-08-24T10:31:05;-21962.72;;;37.33;19.38
12486;BME280;6307;46.804;11.580;2022-08-24T10:53:38;-21971.19;;;37.62;19.43
12486;BME280;6307;46.804;11.580;2022-08-24T10:56:13;-21964.75;;;37.40;19.12
12486;BME280;6307;46.804;11.580;2022-08-24T10:59:10;-21968.41;;;37.52;18.49
12486;BME280;6307;46.804;11.580;2022-08-24T11:02:06;-21956.72;;;37.12;19.04
12486;BME280;6307;46.804;11.580;2022-08-24T11:05:12;-21966.78;;;37.47;19.35
12486;BME280;6307;46.804;11.580;2022-08-24T11:08:01;-21993.63;;;38.39;18.72
12486;BME280;6307;46.804;11.580;2022-08-24T11:10:33;-22006.75;;;38.84;17.42
12486;BME280;6307;46.804;11.580;2022-08-24T11:15:54;-21980.66;;;37.94;18.66
12486;BME280;6307;46.804;11.580;2022-08-24T11:18:26;-21970.00;;;37.58;18.98
12486;BME280;6307;46.804;11.580;2022-08-24T11:21:49;-21988.53;;;38.21;18.08
12486;BME280;6307;46.804;11.580;2022-08-24T11:27:17;-21986.78;;;38.15;18.29
12486;BME280;6307;46.804;11.580;2022-08-24T11:35:08;-22008.94;;;38.91;17.87
12486;BME280;6307;46.804;11.580;2022-08-24T11:37:46;-22017.81;;;39.22;17.92
12486;BME280;6307;46.804;11.580;2022-08-24T11:40:15;-21997.84;;;38.53;17.96
12486;BME280;6307;46.804;11.580;2022-08-24T11:43:16;-22014.47;;;39.10;18.24
12486;BME280;6307;46.804;11.580;2022-08-24T11:46:21;-22043.56;;;40.10;16.93
12486;BME280;6307;46.804;11.580;2022-08-24T12:04:05;-21965.03;;;37.41;19.44
12486;BME280;6307;46.804;11.580;2022-08-24T12:12:37;-21865.91;;;34.02;21.38
12486;BME280;6307;46.804;11.580;2022-08-24T12:15:12;-21888.47;;;34.79;19.70
12486;BME280;6307;46.804;11.580;2022-08-24T12:18:10;-21858.59;;;33.77;22.45
12486;BME280;6307;46.804;11.580;2022-08-24T12:20:46;-21893.00;;;34.94;19.97
12486;BME280;6307;46.804;11.580;2022-08-24T12:23:40;-21900.91;;;35.21;19.68
12486;BME280;6307;46.804;11.580;2022-08-24T12:29:31;-21865.91;;;34.02;21.59
12486;BME280;6307;46.804;11.580;2022-08-24T12:34:51;-21890.38;;;34.85;22.23
12486;BME280;6307;46.804;11.580;2022-08-24T12:40:35;-21960.38;;;37.25;19.22
12486;BME280;6307;46.804;11.580;2022-08-24T12:46:04;-21958.94;;;37.20;19.09
12486;BME280;6307;46.804;11.580;2022-08-24T12:48:58;-21949.88;;;36.89;20.24
12486;BME280;6307;46.804;11.580;2022-08-24T13:00:04;-21929.84;;;36.20;20.15
12486;BME280;6307;46.804;11.580;2022-08-24T13:02:41;-21934.38;;;36.36;19.94
12486;BME280;6307;46.804;11.580;2022-08-24T13:05:17;-21942.44;;;36.63;19.93
12486;BME280;6307;46.804;11.580;2022-08-24T13:07:50;-21973.94;;;37.71;19.21
12486;BME280;6307;46.804;11.580;2022-08-24T13:13:19;-21937.16;;;36.45;20.26
12486;BME280;6307;46.804;11.580;2022-08-24T13:16:02;-21923.88;;;36.00;20.15
12486;BME280;6307;46.804;11.580;2022-08-24T13:18:49;-21936.28;;;36.42;19.88
12486;BME280;6307;46.804;11.580;2022-08-24T13:21:41;-21908.94;;;35.49;20.40
12486;BME280;6307;46.804;11.580;2022-08-24T13:27:44;-21904.28;;;35.33;21.21
12486;BME280;6307;46.804;11.580;2022-08-24T13:32:21;-21886.56;;;34.72;21.94
12486;BME280;6307;46.804;11.580;2022-08-24T13:34:57;-21882.00;;;34.57;21.99
12486;BME280;6307;46.804;11.580;2022-08-24T13:37:26;-21861.06;;;33.85;22.08
12486;BME280;6307;46.804;11.580;2022-08-24T13:40:18;-21878.06;;;34.43;22.14
12486;BME280;6307;46.804;11.580;2022-08-24T13:43:39;-21898.72;;;35.14;22.01
12486;BME280;6307;46.804;11.580;2022-08-24T13:55:37;-21962.72;;;37.33;19.55
12486;BME280;6307;46.804;11.580;2022-08-24T14:06:59;-21922.56;;;35.95;20.26
12486;BME280;6307;46.804;11.580;2022-08-24T14:32:27;-21902.50;;;35.27;22.74
12486;BME280;6307;46.804;11.580;2022-08-24T14:42:55;-21855.34;;;33.66;25.30
12486;BME280;6307;46.804;11.580;2022-08-24T14:49:10;-21821.31;;;32.50;26.23
12486;BME280;6307;46.804;11.580;2022-08-24T14:54:54;-21822.94;;;32.55;25.21
12486;BME280;6307;46.804;11.580;2022-08-24T15:09:30;-21794.00;;;31.57;30.10
12486;BME280;6307;46.804;11.580;2022-08-24T15:12:26;-21788.25;;;31.37;30.03
12486;BME280;6307;46.804;11.580;2022-08-24T15:18:30;-21776.66;;;30.98;27.91
12486;BME280;6307;46.804;11.580;2022-08-24T15:21:23;-21770.63;;;30.77;29.25
12486;BME280;6307;46.804;11.580;2022-08-24T15:29:55;-21753.56;;;30.19;31.68
12486;BME280;6307;46.804;11.580;2022-08-24T15:32:43;-21745.91;;;29.93;30.51
12486;BME280;6307;46.804;11.580;2022-08-24T15:35:24;-21756.06;;;30.28;31.90
12486;BME280;6307;46.804;11.580;2022-08-24T15:37:51;-21736.31;;;29.61;33.43
12486;BME280;6307;46.804;11.580;2022-08-24T15:40:26;-21740.59;;;29.75;32.64
12486;BME280;6307;46.804;11.580;2022-08-24T15:43:02;-21741.63;;;29.79;33.14
12486;BME280;6307;46.804;11.580;2022-08-24T15:45:30;-21746.78;;;29.96;31.80
12486;BME280;6307;46.804;11.580;2022-08-24T15:47:58;-21742.66;;;29.82;33.62
12486;BME280;6307;46.804;11.580;2022-08-24T15:50:34;-21732.34;;;29.47;34.04
12486;BME280;6307;46.804;11.580;2022-08-24T15:53:25;-21732.06;;;29.46;32.77
12486;BME280;6307;46.804;11.580;2022-08-24T15:58:45;-21732.94;;;29.49;33.41
12486;BME280;6307;46.804;11.580;2022-08-24T16:03:58;-21733.22;;;29.50;32.76
12486;BME280;6307;46.804;11.580;2022-08-24T16:11:47;-21736.78;;;29.62;33.59
12486;BME280;6307;46.804;11.580;2022-08-24T16:14:44;-21728.38;;;29.34;36.57
12486;BME280;6307;46.804;11.580;2022-08-24T16:17:32;-21729.53;;;29.38;38.17
12486;BME280;6307;46.804;11.580;2022-08-24T16:20:05;-21728.97;;;29.36;36.38
12486;BME280;6307;46.804;11.580;2022-08-24T16:22:40;-21733.09;;;29.50;34.84
12486;BME280;6307;46.804;11.580;2022-08-24T16:30:59;-21725.56;;;29.24;37.13
12486;BME280;6307;46.804;11.580;2022-08-24T16:36:05;-21733.66;;;29.52;35.08
12486;BME280;6307;46.804;11.580;2022-08-24T16:38:34;-21730.13;;;29.40;35.46
12486;BME280;6307;46.804;11.580;2022-08-24T16:41:06;-21735.88;;;29.59;36.12
12486;BME280;6307;46.804;11.580;2022-08-24T16:43:36;-21730.00;;;29.39;34.70
12486;BME280;6307;46.804;11.580;2022-08-24T16:46:06;-21734.13;;;29.53;34.82
12486;BME280;6307;46.804;11.580;2022-08-24T16:48:34;-21729.09;;;29.36;37.07
12486;BME280;6307;46.804;11.580;2022-08-24T16:51:01;-21723.81;;;29.18;37.38
12486;BME280;6307;46.804;11.580;2022-08-24T16:53:27;-21722.34;;;29.13;38.70
12486;BME280;6307;46.804;11.580;2022-08-24T16:55:54;-21714.66;;;28.87;37.54
12486;BME280;6307;46.804;11.580;2022-08-24T16:58:25;-21715.25;;;28.89;37.71
12486;BME280;6307;46.804;11.580;2022-08-24T17:00:56;-21714.81;;;28.88;37.10
12486;BME280;6307;46.804;11.580;2022-08-24T17:03:22;-21713.03;;;28.82;37.19
12486;BME280;6307;46.804;11.580;2022-08-24T17:05:48;-21713.63;;;28.84;38.00
12486;BME280;6307;46.804;11.580;2022-08-24T17:08:14;-21707.59;;;28.63;37.95
12486;BME280;6307;46.804;11.580;2022-08-24T17:10:40;-21708.03;;;28.65;38.80
12486;BME280;6307;46.804;11.580;2022-08-24T17:13:07;-21699.03;;;28.34;38.52
12486;BME280;6307;46.804;11.580;2022-08-24T17:15:34;-21700.50;;;28.39;41.30
12486;BME280;6307;46.804;11.580;2022-08-24T17:18:04;-21694.75;;;28.20;39.19
12486;BME280;6307;46.804;11.580;2022-08-24T17:20:33;-21702.56;;;28.46;40.07
12486;BME280;6307;46.804;11.580;2022-08-24T17:23:07;-21703.16;;;28.48;41.46
12486;BME280;6307;46.804;11.580;2022-08-24T17:25:33;-21699.47;;;28.36;43.34
12486;BME280;6307;46.804;11.580;2022-08-24T17:28:01;-21698.44;;;28.32;38.22
12486;BME280;6307;46.804;11.580;2022-08-24T17:30:28;-21693.72;;;28.16;41.06
12486;BME280;6307;46.804;11.580;2022-08-24T17:32:54;-21690.63;;;28.06;43.35
12486;BME280;6307;46.804;11.580;2022-08-24T17:35:20;-21676.75;;;27.59;45.84
12486;BME280;6307;46.804;11.580;2022-08-24T17:37:48;-21673.66;;;27.48;41.54
12486;BME280;6307;46.804;11.580;2022-08-24T17:40:19;-21676.47;;;27.58;42.16
12486;BME280;6307;46.804;11.580;2022-08-24T17:42:48;-21674.25;;;27.50;45.05
12486;BME280;6307;46.804;11.580;2022-08-24T17:45:15;-21669.22;;;27.33;44.20